Time;durP1;ratioP1;P1;durP2;ratioP2;P2;SDS_P1;SDS_P2;PMS_P1;PMS_P2;Temp;Humidity;BMP_temperature;BMP_pressure;BME280_temperature;BME280_humidity;BME280_pressure;Samples;Min_cycle;Max_cycle;Signal;HPM_P1;HPM_P2
2022/07/15 00:01:50;;;;;;;;;11.25;7.00;;;;;24.00;39.44;101912.59;5063624;28;45223;-63
2022/07/15 00:04:15;;;;;;;;;9.00;7.25;;;;;23.97;39.62;101910.22;5062490;28;45297;-62
2022/07/15 00:06:40;;;;;;;;;11.00;7.25;;;;;23.92;39.83;101901.75;5063563;28;45561;-63
2022/07/15 00:09:06;;;;;;;;;7.50;7.00;;;;;23.85;39.45;101916.78;5063309;28;45259;-62
2022/07/15 00:11:31;;;;;;;;;6.50;5.00;;;;;23.77;39.59;101912.16;5067270;28;45435;-63
2022/07/15 00:13:57;;;;;;;;;5.25;5.00;;;;;23.73;40.19;101910.75;5064839;27;45412;-63
2022/07/15 00:16:22;;;;;;;;;6.50;4.75;;;;;23.73;40.18;101912.59;5063681;28;45400;-62
2022/07/15 00:18:48;;;;;;;;;5.75;5.00;;;;;23.67;40.00;101909.50;5062473;28;45260;-63
2022/07/15 00:21:13;;;;;;;;;4.25;4.25;;;;;23.66;39.80;101907.81;5063314;28;45361;-63
2022/07/15 00:23:39;;;;;;;;;5.00;5.00;;;;;23.62;40.37;101914.50;5063335;28;45306;-63
2022/07/15 00:26:04;;;;;;;;;6.00;4.25;;;;;23.59;40.54;101921.97;5063345;28;45259;-63
2022/07/15 00:28:30;;;;;;;;;4.75;4.00;;;;;23.55;40.24;101925.97;5062859;28;46188;-62
2022/07/15 00:30:56;;;;;;;;;9.00;5.75;;;;;23.54;40.66;101924.25;5063234;28;45288;-62
2022/07/15 00:33:21;;;;;;;;;7.00;7.00;;;;;23.51;40.36;101917.31;5063105;28;45422;-63
2022/07/15 00:35:47;;;;;;;;;7.00;5.25;;;;;23.48;40.64;101916.78;5063322;28;45210;-63
2022/07/15 00:38:12;;;;;;;;;7.25;5.25;;;;;23.42;40.82;101933.50;5062865;28;45972;-62
2022/07/15 00:40:49;;;;;;;;;7.00;5.50;;;;;23.38;41.06;101938.28;5063173;28;45224;-62
2022/07/15 00:43:17;;;;;;;;;6.00;4.50;;;;;23.31;41.20;101930.00;5063112;28;45306;-63
2022/07/15 00:45:43;;;;;;;;;6.00;4.75;;;;;23.24;40.95;101931.56;5062982;28;45443;-63
2022/07/15 00:48:09;;;;;;;;;5.00;5.00;;;;;23.21;41.08;101942.56;5062920;28;45364;-63
2022/07/15 00:50:36;;;;;;;;;4.50;4.25;;;;;23.15;41.48;101936.97;5062742;28;45342;-62
2022/07/15 00:53:12;;;;;;;;;9.25;5.00;;;;;23.03;41.09;101939.78;5063278;28;45359;-63
2022/07/15 00:55:42;;;;;;;;;6.75;4.75;;;;;22.99;41.42;101949.13;5062791;28;45243;-62
2022/07/15 00:58:13;;;;;;;;;5.75;4.50;;;;;22.98;41.63;101954.63;5062565;28;45407;-63
2022/07/15 01:00:41;;;;;;;;;5.00;4.00;;;;;22.94;41.62;101959.44;5062674;28;45255;-62
2022/07/15 01:03:07;;;;;;;;;7.00;4.00;;;;;22.92;41.87;101956.06;5062790;28;45296;-63
2022/07/15 01:05:33;;;;;;;;;5.75;5.75;;;;;22.90;42.19;101959.84;5062627;28;45323;-63
2022/07/15 01:07:59;;;;;;;;;4.75;4.00;;;;;22.88;41.79;101954.63;5062418;28;45357;-63
2022/07/15 01:10:25;;;;;;;;;3.75;3.75;;;;;22.89;42.07;101969.75;5062403;28;45378;-63
2022/07/15 01:12:51;;;;;;;;;3.75;3.75;;;;;22.88;41.95;101964.53;5067778;28;45466;-63
2022/07/15 01:15:18;;;;;;;;;2.25;2.25;;;;;22.84;42.29;101972.00;5062463;28;45205;-62
2022/07/15 01:17:45;;;;;;;;;5.00;4.00;;;;;22.72;42.08;101968.59;5062154;28;45263;-63
2022/07/15 01:20:12;;;;;;;;;3.00;3.00;;;;;22.71;42.16;101968.75;5062578;28;45385;-63
2022/07/15 01:22:38;;;;;;;;;4.50;3.50;;;;;22.70;42.30;101967.88;5062424;28;45298;-63
2022/07/15 01:25:04;;;;;;;;;6.00;4.25;;;;;22.67;42.28;101976.25;5062262;28;45553;-63
2022/07/15 01:27:29;;;;;;;;;3.25;3.00;;;;;22.67;42.59;101978.94;5062097;28;46075;-62
2022/07/15 01:29:55;;;;;;;;;3.75;2.75;;;;;22.62;42.42;101970.44;5061233;28;45334;-62
2022/07/15 01:32:21;;;;;;;;;5.00;4.50;;;;;22.51;41.80;101971.41;5061420;28;45384;-62
2022/07/15 01:34:48;;;;;;;;;4.75;4.00;;;;;22.43;42.41;101973.06;5062300;28;45230;-63
2022/07/15 01:37:15;;;;;;;;;4.00;3.25;;;;;22.41;42.35;101973.19;5062004;28;45526;-63
2022/07/15 01:39:40;;;;;;;;;6.75;4.75;;;;;22.41;42.28;101975.03;5062002;28;45264;-63
2022/07/15 01:42:06;;;;;;;;;3.50;3.50;;;;;22.43;42.68;101979.28;5062294;28;45216;-64
2022/07/15 01:44:32;;;;;;;;;7.00;3.75;;;;;22.41;42.55;101975.88;5061978;28;45397;-62
2022/07/15 01:46:57;;;;;;;;;1.75;1.75;;;;;22.42;42.67;101988.31;5061851;28;45404;-64
2022/07/15 01:49:26;;;;;;;;;4.50;3.00;;;;;22.41;42.59;101978.56;5061954;28;45273;-62
2022/07/15 01:51:54;;;;;;;;;4.00;2.75;;;;;22.37;42.44;101981.69;5062160;28;45464;-62
2022/07/15 01:54:21;;;;;;;;;3.25;3.25;;;;;22.26;42.55;101979.94;5061950;28;45310;-63
2022/07/15 01:56:48;;;;;;;;;3.00;3.00;;;;;22.23;42.49;101972.19;5061718;28;45287;-63
2022/07/15 01:59:14;;;;;;;;;2.75;2.75;;;;;22.18;42.64;101971.72;5061432;28;45276;-62
2022/07/15 02:01:39;;;;;;;;;2.00;2.00;;;;;22.14;42.61;101971.16;5061815;28;45540;-63
2022/07/15 02:04:05;;;;;;;;;4.50;2.75;;;;;22.13;42.58;101968.63;5062041;28;45295;-63
2022/07/15 02:06:30;;;;;;;;;4.00;2.75;;;;;22.12;42.59;101974.94;5061353;28;45236;-63
2022/07/15 02:08:56;;;;;;;;;4.75;2.00;;;;;22.08;42.61;101971.69;5061652;28;45254;-63
2022/07/15 02:11:22;;;;;;;;;3.50;3.50;;;;;22.07;42.71;101971.81;5064089;28;45426;-63
2022/07/15 02:13:47;;;;;;;;;3.00;2.75;;;;;22.03;42.59;101964.00;5064762;28;45405;-62
2022/07/15 02:16:13;;;;;;;;;3.25;3.25;;;;;22.03;42.41;101968.53;5061588;28;46008;-63
2022/07/15 02:18:39;;;;;;;;;2.00;2.00;;;;;22.03;42.79;101972.06;5061285;28;45173;-63
2022/07/15 02:21:05;;;;;;;;;3.00;3.00;;;;;22.03;42.65;101972.06;5061531;28;45165;-63
2022/07/15 02:23:31;;;;;;;;;4.75;2.75;;;;;21.97;42.44;101966.41;5061518;28;45477;-63
2022/07/15 02:25:56;;;;;;;;;5.50;3.00;;;;;21.92;42.68;101971.31;5061237;28;45304;-63
2022/07/15 02:28:22;;;;;;;;;6.25;3.75;;;;;21.91;42.48;101972.31;5061202;28;45358;-63
2022/07/15 02:30:48;;;;;;;;;2.00;2.00;;;;;21.86;42.86;101970.00;5061545;28;45326;-63
2022/07/15 02:33:14;;;;;;;;;3.25;2.00;;;;;21.84;42.37;101972.00;5061279;28;45448;-63
2022/07/15 02:35:41;;;;;;;;;2.50;2.00;;;;;21.83;42.91;101972.13;5061192;28;45348;-63
2022/07/15 02:38:07;;;;;;;;;3.50;2.00;;;;;21.80;42.75;101970.53;5061102;28;45314;-63
2022/07/15 02:40:33;;;;;;;;;3.00;2.00;;;;;21.80;42.99;101969.69;5061222;28;45203;-63
2022/07/15 02:43:02;;;;;;;;;1.75;1.00;;;;;21.81;42.73;101969.59;5060982;28;45562;-63
2022/07/15 02:45:33;;;;;;;;;4.50;3.00;;;;;21.81;43.08;101966.06;5061216;28;45348;-63
2022/07/15 02:47:59;;;;;;;;;4.00;3.00;;;;;21.78;42.97;101960.94;5060860;28;45251;-63
2022/07/15 02:50:25;;;;;;;;;4.25;3.00;;;;;21.76;42.97;101961.09;5061159;28;45224;-63
2022/07/15 02:52:50;;;;;;;;;2.75;2.75;;;;;21.79;42.97;101959.94;5061251;28;45311;-63
2022/07/15 02:55:16;;;;;;;;;2.75;2.75;;;;;21.79;42.86;101963.47;5060816;28;45539;-63
2022/07/15 02:57:41;;;;;;;;;4.25;1.75;;;;;21.80;42.89;101977.75;5060668;28;45421;-62
2022/07/15 03:00:13;;;;;;;;;3.00;3.00;;;;;21.79;43.02;101979.56;5061147;28;45270;-63
2022/07/15 03:02:39;;;;;;;;;4.50;2.75;;;;;21.78;43.10;101983.25;5060801;28;45362;-63
2022/07/15 03:05:06;;;;;;;;;3.75;3.25;;;;;21.74;42.84;101988.03;5060555;28;45245;-62
2022/07/15 03:07:32;;;;;;;;;4.00;3.00;;;;;21.72;42.98;101984.66;5060655;28;45421;-63
2022/07/15 03:09:58;;;;;;;;;5.00;4.00;;;;;21.68;42.80;101991.25;5060797;28;45260;-63
2022/07/15 03:12:23;;;;;;;;;6.00;4.00;;;;;21.60;43.06;101983.00;5065568;28;45588;-62
2022/07/15 03:14:49;;;;;;;;;6.50;3.75;;;;;21.56;43.02;101991.44;5060823;28;45966;-64
2022/07/15 03:17:15;;;;;;;;;4.25;3.75;;;;;21.52;43.13;101990.03;5060375;28;45314;-62
2022/07/15 03:19:40;;;;;;;;;6.50;3.75;;;;;21.47;43.45;101995.75;5060858;28;45332;-63
2022/07/15 03:22:06;;;;;;;;;8.50;7.75;;;;;21.45;43.32;101992.38;5060782;28;45318;-63
2022/07/15 03:24:32;;;;;;;;;3.50;3.50;;;;;21.40;43.12;101998.13;5060646;28;45943;-63
2022/07/15 03:26:58;;;;;;;;;3.25;3.25;;;;;21.37;43.41;102000.22;5060604;28;45219;-63
2022/07/15 03:29:24;;;;;;;;;6.50;4.00;;;;;21.35;43.50;101999.50;5060518;28;45236;-63
2022/07/15 03:31:49;;;;;;;;;5.00;3.75;;;;;21.34;43.52;102003.16;5060527;28;45230;-63
2022/07/15 03:34:15;;;;;;;;;5.00;4.25;;;;;21.31;43.34;102001.59;5060310;28;46077;-62
2022/07/15 03:36:40;;;;;;;;;5.00;4.00;;;;;21.23;43.54;101995.97;5060449;28;45226;-63
2022/07/15 03:39:07;;;;;;;;;6.50;4.25;;;;;21.19;43.58;101986.53;5059252;28;45170;-63
2022/07/15 03:41:33;;;;;;;;;4.25;4.25;;;;;21.14;43.87;101996.75;5060598;28;45554;-63
2022/07/15 03:44:00;;;;;;;;;7.00;4.00;;;;;21.12;44.03;101980.81;5060186;28;45346;-63
2022/07/15 03:46:26;;;;;;;;;5.00;5.00;;;;;21.11;43.87;101991.69;5060126;28;45398;-63
2022/07/15 03:48:51;;;;;;;;;5.75;4.25;;;;;21.11;43.93;101981.81;5059114;28;45373;-63
2022/07/15 03:51:17;;;;;;;;;4.00;3.75;;;;;21.14;43.76;101978.00;5060450;28;45497;-63
2022/07/15 03:53:43;;;;;;;;;5.75;4.75;;;;;21.13;43.95;101981.66;5062609;28;45927;-63
2022/07/15 03:56:08;;;;;;;;;6.75;5.00;;;;;21.09;43.94;101980.22;5063667;28;45261;-63
2022/07/15 03:58:34;;;;;;;;;3.00;3.00;;;;;21.04;43.94;101985.97;5063634;28;45238;-63
2022/07/15 04:00:59;;;;;;;;;9.25;5.50;;;;;20.97;44.01;101983.94;5063769;28;45459;-63
2022/07/15 04:03:25;;;;;;;;;6.75;5.00;;;;;20.93;44.22;101994.03;5063564;28;45250;-63
2022/07/15 04:05:50;;;;;;;;;1.00;1.00;;;;;20.90;44.01;101986.28;5063545;28;45242;-63
2022/07/15 04:08:16;;;;;;;;;5.75;3.75;;;;;20.91;44.61;101991.50;5063972;28;45206;-63
2022/07/15 04:10:41;;;;;;;;;5.00;4.50;;;;;20.89;44.67;101995.28;5063844;28;45217;-63
2022/07/15 04:13:07;;;;;;;;;6.75;4.75;;;;;20.85;44.39;101989.34;5067399;28;45681;-63
2022/07/15 04:15:32;;;;;;;;;6.25;4.25;;;;;20.89;44.70;101995.28;5063343;28;45338;-63
2022/07/15 04:17:58;;;;;;;;;8.00;5.75;;;;;20.88;45.08;101994.44;5063620;28;45492;-63
2022/07/15 04:20:24;;;;;;;;;6.50;4.00;;;;;20.84;44.98;102005.53;5063429;28;45330;-63
2022/07/15 04:22:50;;;;;;;;;7.00;6.50;;;;;20.86;44.91;102004.44;5063402;28;46100;-63
2022/07/15 04:25:20;;;;;;;;;5.50;5.50;;;;;20.84;45.05;102010.88;5062944;28;45404;-63
2022/07/15 04:27:48;;;;;;;;;4.25;4.25;;;;;20.79;44.91;102010.44;5063102;28;45293;-63
2022/07/15 04:30:14;;;;;;;;;7.75;4.00;;;;;20.72;45.10;102012.75;5063227;28;45461;-63
2022/07/15 04:32:40;;;;;;;;;5.50;4.75;;;;;20.74;45.20;102010.78;5063064;28;45333;-63
2022/07/15 04:35:06;;;;;;;;;5.25;3.75;;;;;20.75;45.05;102012.50;5062927;28;45343;-63
2022/07/15 04:37:32;;;;;;;;;5.00;4.25;;;;;20.76;45.12;102016.00;5063023;28;45259;-63
2022/07/15 04:39:58;;;;;;;;;8.00;5.00;;;;;20.75;44.80;102017.00;5063294;28;45339;-63
2022/07/15 04:42:23;;;;;;;;;6.50;4.75;;;;;20.73;45.00;102013.59;5062791;28;46089;-63
2022/07/15 04:44:49;;;;;;;;;4.50;4.00;;;;;20.73;44.95;102016.28;5063019;28;45235;-63
2022/07/15 04:47:16;;;;;;;;;7.00;4.75;;;;;20.68;44.99;102011.28;5062987;28;45340;-64
2022/07/15 04:52:26;;;;;;;;;5.00;5.00;;;;;20.64;45.19;102028.59;5062946;28;45389;-63
2022/07/15 04:54:53;;;;;;;;;6.75;4.50;;;;;20.58;45.28;102019.22;5062955;28;45356;-64
2022/07/15 04:57:19;;;;;;;;;6.25;4.75;;;;;20.53;45.33;102021.41;5062644;28;45374;-63
2022/07/15 04:59:44;;;;;;;;;6.25;6.00;;;;;20.46;45.72;102027.38;5062975;28;45499;-64
2022/07/15 05:02:10;;;;;;;;;5.50;4.50;;;;;20.39;45.84;102034.19;5062827;28;45712;-63
2022/07/15 05:04:36;;;;;;;;;5.25;5.25;;;;;20.34;45.81;102027.38;5062611;28;45318;-63
2022/07/15 05:07:01;;;;;;;;;9.25;6.75;;;;;20.26;46.32;102027.13;5062695;28;45260;-63
2022/07/15 05:09:27;;;;;;;;;6.75;5.50;;;;;20.20;46.23;102016.91;5062982;28;45177;-63
2022/07/15 05:11:52;;;;;;;;;7.50;6.00;;;;;20.16;46.20;102030.69;5068003;28;46249;-63
2022/07/15 05:14:18;;;;;;;;;7.00;6.50;;;;;20.12;46.22;102035.41;5062470;28;45211;-63
2022/07/15 05:16:43;;;;;;;;;5.00;5.00;;;;;20.12;46.89;102042.59;5062364;28;45340;-63
2022/07/15 05:19:09;;;;;;;;;6.25;4.75;;;;;20.07;46.87;102037.59;5062622;28;45261;-63
2022/07/15 05:21:34;;;;;;;;;5.75;5.75;;;;;20.06;46.94;102039.44;5062447;28;46169;-63
2022/07/15 05:24:00;;;;;;;;;5.00;5.00;;;;;20.09;47.12;102041.00;5062611;28;45228;-64
2022/07/15 05:26:25;;;;;;;;;6.50;4.75;;;;;20.08;46.99;102045.50;5077220;28;45270;-64
2022/07/15 05:28:51;;;;;;;;;10.50;6.50;;;;;20.13;46.72;102039.78;5082654;28;45248;-64
2022/07/15 05:31:17;;;;;;;;;9.00;5.25;;;;;20.20;46.84;102043.69;5082566;28;45985;-64
2022/07/15 05:33:43;;;;;;;;;5.75;4.25;;;;;20.28;46.93;102043.06;5082585;28;45327;-64
2022/07/15 05:36:13;;;;;;;;;6.50;6.25;;;;;20.36;47.51;102052.19;5082700;28;45291;-63
2022/07/15 05:38:39;;;;;;;;;4.25;4.25;;;;;20.43;47.25;102057.06;5081340;27;45534;-63
2022/07/15 05:41:05;;;;;;;;;8.00;6.00;;;;;20.47;47.23;102055.88;5082217;28;46281;-64
2022/07/15 05:43:30;;;;;;;;;8.50;4.75;;;;;20.51;46.92;102063.53;5082220;28;45217;-63
2022/07/15 05:45:56;;;;;;;;;6.75;5.25;;;;;20.53;46.99;102066.91;5082393;27;45211;-63
2022/07/15 05:48:22;;;;;;;;;7.00;6.25;;;;;20.57;47.19;102068.41;5082542;28;45516;-63
2022/07/15 05:50:47;;;;;;;;;8.50;6.75;;;;;20.61;47.24;102069.00;5082117;28;45315;-64
2022/07/15 05:53:12;;;;;;;;;5.75;5.75;;;;;20.66;47.15;102065.94;5082408;28;45262;-63
2022/07/15 05:55:39;;;;;;;;;6.00;5.50;;;;;20.72;47.31;102060.97;5082334;28;45362;-64
2022/07/15 05:58:07;;;;;;;;;8.50;6.75;;;;;20.78;47.31;102065.81;5082291;28;45250;-63
2022/07/15 06:00:32;;;;;;;;;5.75;4.75;;;;;20.83;47.50;102068.97;5081958;28;45239;-63
2022/07/15 06:02:58;;;;;;;;;6.00;5.00;;;;;20.92;47.23;102070.88;5081733;28;45212;-63
2022/07/15 06:05:24;;;;;;;;;4.00;4.00;;;;;20.99;47.04;102065.03;5081785;28;45233;-63
2022/07/15 06:07:49;;;;;;;;;7.50;4.25;;;;;21.04;46.94;102068.19;5081608;28;45235;-62
2022/07/15 06:10:15;;;;;;;;;6.00;4.50;;;;;21.05;47.32;102060.00;5081813;28;45772;-62
2022/07/15 06:12:40;;;;;;;;;6.50;5.50;;;;;21.07;47.45;102066.09;5072781;28;45177;-62
2022/07/15 06:15:07;;;;;;;;;5.25;5.25;;;;;21.07;47.21;102057.19;5060987;28;45312;-63
2022/07/15 06:17:33;;;;;;;;;7.00;5.50;;;;;21.09;47.11;102055.22;5061507;28;45507;-63
2022/07/15 06:19:59;;;;;;;;;6.00;5.00;;;;;21.10;47.40;102071.22;5061328;28;45399;-62
2022/07/15 06:22:24;;;;;;;;;4.50;4.50;;;;;21.15;46.80;102060.09;5061454;28;45272;-62
2022/07/15 06:24:50;;;;;;;;;5.25;5.25;;;;;21.18;46.92;102058.03;5061422;28;45318;-63
2022/07/15 06:27:15;;;;;;;;;7.00;5.00;;;;;21.22;47.11;102063.97;5061448;28;45603;-63
2022/07/15 06:29:41;;;;;;;;;9.00;6.00;;;;;21.30;46.67;102068.72;5061348;28;45329;-62
2022/07/15 06:32:07;;;;;;;;;6.25;4.75;;;;;21.30;46.71;102058.84;5061362;28;45335;-62
2022/07/15 06:34:33;;;;;;;;;5.00;4.00;;;;;21.37;46.97;102065.41;5061460;28;45340;-63
2022/07/15 06:36:58;;;;;;;;;5.25;5.25;;;;;21.41;46.47;102066.88;5061393;28;45410;-62
2022/07/15 06:39:24;;;;;;;;;8.00;4.75;;;;;21.45;46.65;102062.94;5060960;28;45852;-63
2022/07/15 06:41:49;;;;;;;;;6.50;4.50;;;;;21.54;46.47;102068.50;5061280;28;45227;-63
2022/07/15 06:44:15;;;;;;;;;4.00;3.25;;;;;21.62;46.20;102074.91;5061126;28;45249;-62
2022/07/15 06:46:41;;;;;;;;;1.00;1.00;;;;;21.66;46.15;102079.03;5061144;28;45349;-63
2022/07/15 06:49:07;;;;;;;;;10.75;6.00;;;;;21.73;46.12;102079.38;5061056;28;45565;-63
2022/07/15 06:51:32;;;;;;;;;7.00;5.00;;;;;21.80;46.31;102080.53;5061300;28;45306;-62
2022/07/15 06:53:58;;;;;;;;;5.50;4.00;;;;;21.83;45.95;102074.91;5061038;28;45306;-62
2022/07/15 06:56:24;;;;;;;;;5.00;5.00;;;;;21.87;45.92;102072.81;5061179;28;45268;-62
2022/07/15 06:58:49;;;;;;;;;11.25;8.50;;;;;21.90;45.90;102081.47;5060456;28;45948;-63
2022/07/15 07:01:15;;;;;;;;;5.00;3.00;;;;;21.93;45.67;102081.19;5061169;28;45460;-63
2022/07/15 07:03:40;;;;;;;;;4.00;4.00;;;;;21.98;45.68;102081.66;5060885;28;45491;-63
2022/07/15 07:06:06;;;;;;;;;3.00;3.00;;;;;22.02;45.51;102085.75;5059595;28;45407;-62
2022/07/15 07:08:31;;;;;;;;;8.00;4.25;;;;;22.07;45.49;102085.38;5060764;28;46386;-63
2022/07/15 07:10:57;;;;;;;;;5.25;4.00;;;;;22.10;45.36;102093.16;5061069;28;45177;-62
2022/07/15 07:13:23;;;;;;;;;7.25;5.00;;;;;22.14;45.12;102077.66;5065847;28;45391;-63
2022/07/15 07:15:49;;;;;;;;;5.00;3.00;;;;;22.15;44.83;102080.22;5060907;28;45332;-62
2022/07/15 07:18:14;;;;;;;;;4.00;4.00;;;;;22.19;44.68;102076.25;5060267;28;45289;-62
2022/07/15 07:20:43;;;;;;;;;4.25;2.75;;;;;22.23;44.72;102087.59;5060975;28;45338;-62
2022/07/15 07:23:10;;;;;;;;;5.00;5.00;;;;;22.25;44.46;102081.09;5060829;28;45315;-63
2022/07/15 07:25:36;;;;;;;;;5.00;4.00;;;;;22.29;44.32;102081.69;5068839;28;45301;-63
2022/07/15 07:28:03;;;;;;;;;4.25;3.50;;;;;22.33;44.19;102077.75;5081826;28;45516;-63
2022/07/15 07:30:31;;;;;;;;;4.75;4.75;;;;;22.40;44.12;102084.28;5084564;28;45316;-63
2022/07/15 07:32:57;;;;;;;;;3.00;3.00;;;;;22.45;43.94;102070.47;5084389;28;45440;-63
2022/07/15 07:35:23;;;;;;;;;3.00;3.00;;;;;22.48;43.93;102072.88;5084513;28;45326;-62
2022/07/15 07:37:49;;;;;;;;;4.00;4.00;;;;;22.53;43.56;102081.38;5084144;28;45442;-63
2022/07/15 07:40:17;;;;;;;;;5.50;3.50;;;;;22.56;43.48;102071.19;5084307;28;45306;-63
2022/07/15 07:42:45;;;;;;;;;3.00;2.75;;;;;22.64;42.94;102069.66;5084182;28;45235;-63
2022/07/15 07:45:11;;;;;;;;;3.00;3.00;;;;;22.69;43.12;102070.13;5084282;28;45452;-63
2022/07/15 07:47:40;;;;;;;;;5.00;4.00;;;;;22.74;43.12;102075.91;5083956;28;45243;-63
2022/07/15 07:50:07;;;;;;;;;4.00;4.00;;;;;22.79;42.74;102069.13;5084321;28;45373;-63
2022/07/15 07:52:33;;;;;;;;;4.00;3.75;;;;;22.75;42.44;102059.66;5084119;28;45408;-63
2022/07/15 07:54:58;;;;;;;;;3.00;3.00;;;;;22.83;42.22;102065.19;5084052;28;45619;-63
2022/07/15 07:57:24;;;;;;;;;4.75;2.25;;;;;22.88;42.20;102067.50;5083711;28;45899;-63
2022/07/15 07:59:50;;;;;;;;;4.25;3.25;;;;;22.88;42.01;102061.25;5082656;28;45244;-63
2022/07/15 08:02:15;;;;;;;;;4.00;3.00;;;;;22.88;41.81;102063.94;5084086;28;45380;-63
2022/07/15 08:04:41;;;;;;;;;4.00;3.00;;;;;22.91;41.49;102059.16;5084133;28;45295;-63
2022/07/15 08:07:07;;;;;;;;;3.00;3.00;;;;;22.93;41.79;102062.56;5083734;28;45177;-63
2022/07/15 08:09:33;;;;;;;;;5.25;3.25;;;;;23.00;41.21;102063.69;5084015;28;45448;-63
2022/07/15 08:11:59;;;;;;;;;3.00;3.00;;;;;23.08;41.20;102057.63;5080796;28;45745;-62
2022/07/15 08:14:25;;;;;;;;;3.75;3.00;;;;;23.14;41.26;102059.72;5063390;28;45550;-63
2022/07/15 08:16:51;;;;;;;;;5.00;1.00;;;;;23.17;41.06;102054.09;5063332;28;45382;-63
2022/07/15 08:19:19;;;;;;;;;4.00;4.00;;;;;23.20;40.96;102055.63;5063402;28;45477;-62
2022/07/15 08:21:45;;;;;;;;;5.00;3.25;;;;;23.22;40.54;102050.97;5063402;28;45274;-63
2022/07/15 08:24:12;;;;;;;;;7.00;3.25;;;;;23.22;40.36;102050.97;5063619;28;45269;-62
2022/07/15 08:26:38;;;;;;;;;2.25;2.00;;;;;23.24;40.37;102046.31;5063005;28;46279;-63
2022/07/15 08:29:04;;;;;;;;;3.50;3.50;;;;;23.29;39.94;102052.09;5063127;28;45330;-63
2022/07/15 08:31:32;;;;;;;;;4.75;3.50;;;;;23.34;39.82;102048.00;5063069;28;45351;-63
2022/07/15 08:33:58;;;;;;;;;5.75;3.00;;;;;23.37;40.02;102053.09;5063425;28;45170;-63
2022/07/15 08:36:23;;;;;;;;;5.00;3.00;;;;;23.38;39.54;102054.81;5062944;28;45364;-63
2022/07/15 08:38:49;;;;;;;;;2.00;2.00;;;;;23.35;39.41;102060.44;5062670;28;45317;-63
2022/07/15 08:41:15;;;;;;;;;1.50;1.50;;;;;23.37;39.49;102058.47;5063055;28;45157;-63
2022/07/15 08:43:41;;;;;;;;;1.00;1.00;;;;;23.42;39.22;102055.34;5063212;28;45243;-62
2022/07/15 08:46:08;;;;;;;;;2.00;2.00;;;;;23.45;38.92;102051.53;5062945;28;45325;-63
2022/07/15 08:48:37;;;;;;;;;2.50;2.00;;;;;23.50;39.28;102041.19;5063119;28;45390;-62
2022/07/15 08:51:07;;;;;;;;;2.50;2.00;;;;;23.52;38.59;102041.88;5062925;28;45347;-63
2022/07/15 08:53:34;;;;;;;;;1.50;1.25;;;;;23.54;38.76;102038.09;5063134;28;45319;-62
2022/07/15 08:56:00;;;;;;;;;3.00;2.00;;;;;23.54;38.97;102037.22;5062645;28;45642;-63
2022/07/15 08:58:26;;;;;;;;;1.00;1.00;;;;;23.59;38.66;102032.25;5062628;28;45494;-62
2022/07/15 09:00:51;;;;;;;;;2.00;2.00;;;;;23.65;37.93;102032.56;5062823;28;45405;-63
2022/07/15 09:03:17;;;;;;;;;2.75;2.00;;;;;23.67;38.30;102032.41;5062780;28;45375;-62
2022/07/15 09:05:42;;;;;;;;;2.00;2.00;;;;;23.73;38.13;102036.38;5062304;28;45976;-63
2022/07/15 09:08:16;;;;;;;;;2.00;1.25;;;;;23.78;37.92;102034.06;5062828;28;45275;-62
2022/07/15 09:10:57;;;;;;;;;1.00;1.00;;;;;23.75;37.27;102029.84;5062742;28;45246;-63
2022/07/15 09:13:34;;;;;;;;;2.00;2.00;;;;;23.77;37.33;102025.16;5066735;28;45501;-62
2022/07/15 09:16:08;;;;;;;;;2.00;2.00;;;;;23.80;37.30;102024.88;5062527;28;45364;-63
2022/07/15 09:18:41;;;;;;;;;2.25;1.00;;;;;23.88;36.99;102018.78;5062338;28;45323;-63
2022/07/15 09:21:26;;;;;;;;;4.75;2.25;;;;;23.99;37.33;102029.34;5062743;28;45600;-62
2022/07/15 09:23:53;;;;;;;;;2.25;2.25;;;;;24.04;36.92;102027.06;5062667;28;45244;-63
2022/07/15 09:26:33;;;;;;;;;1.50;1.50;;;;;24.13;36.79;102036.97;5062219;28;45338;-62
2022/07/15 09:29:00;;;;;;;;;1.50;1.00;;;;;24.15;36.06;102045.72;5062109;28;45258;-62
2022/07/15 09:34:14;;;;;;;;;3.00;1.00;;;;;24.22;35.44;102035.22;5062416;28;45318;-63
2022/07/15 09:36:50;;;;;;;;;3.00;1.00;;;;;24.24;35.00;102030.53;5061840;28;46250;-63
2022/07/15 09:39:17;;;;;;;;;2.00;1.00;;;;;24.25;35.42;102024.13;5060701;28;45281;-63
2022/07/15 09:41:44;;;;;;;;;2.00;1.00;;;;;24.29;35.35;102022.00;5062280;28;45249;-63
2022/07/15 09:44:18;;;;;;;;;2.25;0.00;;;;;24.31;34.66;102022.69;5061813;28;45198;-63
2022/07/15 09:46:49;;;;;;;;;0.00;0.00;;;;;24.33;34.37;102021.59;5061901;28;46106;-64
2022/07/15 09:49:32;;;;;;;;;1.00;0.50;;;;;24.38;34.12;102015.75;5061845;28;45448;-63
2022/07/15 09:52:09;;;;;;;;;2.25;1.00;;;;;24.46;34.03;102023.94;5061294;28;45343;-63
2022/07/15 09:54:41;;;;;;;;;1.00;1.00;;;;;24.51;34.17;102013.56;5061962;28;45474;-63
2022/07/15 09:57:09;;;;;;;;;0.25;0.25;;;;;24.59;34.33;102019.03;5061663;28;45297;-63
2022/07/15 09:59:35;;;;;;;;;0.75;0.75;;;;;24.63;34.17;102019.56;5061854;28;45253;-63
2022/07/15 10:02:01;;;;;;;;;1.50;1.00;;;;;24.67;33.65;102024.53;5061831;28;45425;-63
2022/07/15 10:04:29;;;;;;;;;1.00;1.00;;;;;24.78;33.55;102008.13;5061977;28;45570;-63
2022/07/15 10:06:59;;;;;;;;;3.50;1.00;;;;;24.89;33.38;102009.75;5060127;28;47688;-63
2022/07/15 10:09:27;;;;;;;;;3.75;2.00;;;;;25.02;33.79;102003.97;5061732;28;45303;-63
2022/07/15 10:11:56;;;;;;;;;3.00;0.00;;;;;25.13;33.40;102011.03;5067495;28;45247;-62
2022/07/15 10:14:46;;;;;;;;;1.75;1.00;;;;;25.13;33.11;102008.34;5061773;28;45586;-63
2022/07/15 10:17:40;;;;;;;;;1.75;1.00;;;;;25.19;33.27;102019.31;5061083;28;45893;-63
2022/07/15 10:20:33;;;;;;;;;2.50;2.50;;;;;25.25;32.68;102015.16;5061371;28;45456;-63
2022/07/15 10:23:17;;;;;;;;;2.00;2.00;;;;;25.25;33.07;102007.91;5061449;28;45321;-63
2022/07/15 10:26:18;;;;;;;;;1.00;1.00;;;;;25.31;33.04;102004.59;5061513;28;45327;-62
2022/07/15 10:28:49;;;;;;;;;1.75;1.50;;;;;25.35;32.48;102002.41;5005631;28;46052;-63
2022/07/15 10:31:18;;;;;;;;;1.75;1.00;;;;;25.39;32.47;101993.03;5068174;28;45296;-63
2022/07/15 10:34:07;;;;;;;;;1.00;1.00;;;;;25.47;32.48;101997.63;5081551;28;45432;-62
2022/07/15 10:36:54;;;;;;;;;1.25;1.25;;;;;25.55;32.00;101987.75;5067926;28;45560;-63
2022/07/15 10:39:22;;;;;;;;;3.50;1.00;;;;;25.64;32.13;101977.84;5060704;28;45419;-63
2022/07/15 10:41:47;;;;;;;;;1.00;1.00;;;;;25.66;31.92;101981.22;5061109;28;45247;-63
2022/07/15 10:44:12;;;;;;;;;2.75;1.25;;;;;25.73;31.61;101997.66;5060933;28;45149;-62
2022/07/15 10:46:38;;;;;;;;;1.25;1.00;;;;;25.75;31.14;101999.22;5061298;28;45235;-62
2022/07/15 10:49:03;;;;;;;;;2.25;1.00;;;;;25.79;31.39;101989.78;5061012;28;45197;-63
2022/07/15 10:51:35;;;;;;;;;1.50;1.50;;;;;25.84;31.64;101983.91;5061389;28;45145;-62
2022/07/15 10:54:02;;;;;;;;;1.00;1.00;;;;;25.88;31.48;101977.16;5061290;28;45530;-63
2022/07/15 10:56:43;;;;;;;;;2.25;0.00;;;;;25.94;31.25;101970.28;5061173;28;45247;-63
2022/07/15 10:59:13;;;;;;;;;1.75;1.00;;;;;26.01;30.91;101974.88;5060395;28;46555;-63
2022/07/15 11:01:40;;;;;;;;;2.00;2.00;;;;;26.03;30.63;101977.41;5060440;28;45325;-63
2022/07/15 11:04:11;;;;;;;;;1.00;1.00;;;;;26.04;30.39;101971.84;5060970;28;45284;-62
2022/07/15 11:07:09;;;;;;;;;1.75;1.00;;;;;26.11;30.80;101972.03;5060703;28;45446;-63
2022/07/15 11:10:02;;;;;;;;;1.00;1.00;;;;;26.15;30.42;101968.03;5069824;28;46268;-63
2022/07/15 11:12:27;;;;;;;;;0.75;0.75;;;;;26.21;30.51;101967.34;5074213;28;45178;-62
2022/07/15 11:14:55;;;;;;;;;1.75;1.75;;;;;26.25;29.99;101952.53;5060830;28;45225;-63
2022/07/15 11:17:42;;;;;;;;;2.25;1.75;;;;;26.34;30.25;101950.69;5060797;28;45501;-63
2022/07/15 11:20:14;;;;;;;;;3.75;2.50;;;;;26.44;30.56;101965.75;5060523;28;45375;-62
2022/07/15 11:22:47;;;;;;;;;1.75;1.75;;;;;26.50;29.98;101963.44;5060552;28;45339;-63
2022/07/15 11:25:26;;;;;;;;;2.00;0.75;;;;;26.52;29.81;101962.25;5060401;28;45470;-63
2022/07/15 11:27:55;;;;;;;;;2.00;1.75;;;;;26.59;29.88;101954.31;5059974;28;45354;-63
2022/07/15 11:30:21;;;;;;;;;0.50;0.50;;;;;26.61;29.19;101949.59;5067338;28;45418;-63
2022/07/15 11:32:55;;;;;;;;;0.25;0.25;;;;;26.64;29.41;101950.13;5080637;28;45306;-62